Boonville, MO

4:08 PM CDT on July 05, 2015 (GMT -0500)
901 Riviera Drive | | Change Station
CLOSE
Current Station
Personal Weather Station
Location: Boonville, MO
Elevation: 764 ft
Nearby Weather Stations
Active Advisory: Flood Warning

Elev 764 ft 38.97 °N, 92.76 °W | Updated 33 seconds ago

Mostly Cloudy
Mostly Cloudy
88.4 °F
Feels Like 100 °F
N
1.0
Wind Variable Wind from ESE
Gusts 2.0 mph

Today
High -- | Low -- °F
--% Chance of Precip.
Yesterday
High -- | Low -- °F
Precip. -- in
5:51 AM 8:39 PM
Waning Gibbous, 82% visible
Pressure 29.98 in
Visibility 10.0 miles
Clouds Scattered Clouds 3000 ft
Mostly Cloudy 3500 ft
Mostly Cloudy 4300 ft
Heat Index 100 °F
Dew Point 76 °F
Humidity 68%
Rainfall 0.00 in
Snow Depth Not available.
UV 5.2 out of 12
Pollen 4.10 out of 12
Air Quality Not available.
Flu Activity Not available.
METAR KVER 052055Z AUTO 14012G16KT 10SM SCT030 BKN035 BKN043 31/22 A2998 RMK AO2 T03060216

More Conditions Fewer Conditions

Pressure 29.98 in
Visibility 10.0 miles
Clouds Scattered Clouds 3000 ft
Mostly Cloudy 3500 ft
Mostly Cloudy 4300 ft
Heat Index 100 °F
Dew Point 76 °F
Humidity 68%
Rainfall 0.00 in
Snow Depth Not available.
UV 5.2 out of 12
Pollen 4.10 out of 12
Air Quality Not available.
Flu Activity Not available.
METAR KVER 052055Z AUTO 14012G16KT 10SM SCT030 BKN035 BKN043 31/22 A2998 RMK AO2 T03060216

More Conditions Fewer Conditions

10-Day Weather Forecast

×

Almanac

Astronomy

Jul. 05, 2015 Rise Set
Actual Time
Civil Twilight
Nautical Twilight
Astronomical Twilight
Moon
Length of Visible Light
Length of Day
Tomorrow will be .
, % of the Moon is Illuminated

Today's Extremes

State Highs State Lows

Community

WunderPhotos

Upload Photos

1,835,386 photos uploaded!

WunderBlogs® & News

Nearby

Air Quality

  Air Quality AQ Index Pollutant
Not available.

Snow Depth

Station Depth Elevation

Earthquake Activity

City Distance Mag. Time & Date
Minimum magnitude displayed is 2.5.

Coastal Water Temperatures

Place Temperature

Stations

Nearby Weather Stations

Station Location Temp. Windchill Dew Point Humidity Wind Precip. Elev Updated Type
                   
Flood Warning
Statement as of 1:24 PM CDT on July 05, 2015

The Flood Warning continues for
the Blackwater river near Blue Lick.
* Until Tuesday evening.
* At 12:45 PM Sunday the stage was 29.6 feet.
* Flood stage is 24.0 feet.
* Moderate flooding is occurring and moderate flooding is forecast.
* Forecast... the river will continue to fall to below flood stage by
Monday evening.
* At 29.0 feet... livestock in pastures along the river may be
endangered. Extensive damage also occurs to cropland and pasture.
* At 24.0 feet... cropland and pastures along the river flood.

                       Latest
location fs stage day/time forecast

Blackwater river
Blue Lick 24 29.6 sun 01 PM 29.0 this evening


lat... Lon 3894 9342 3899 9348 3903 9297 3894 9295 3893 9323